createdAt,value
2023-04-29T00:00:01.041Z,0.00
2023-04-29T00:10:01.542Z,0.00
2023-04-29T00:20:02.122Z,0.00
2023-04-29T00:30:01.033Z,0.00
2023-04-29T00:40:04.022Z,0.00
2023-04-29T00:50:01.231Z,0.00
2023-04-29T01:00:01.048Z,0.00
2023-04-29T01:10:03.879Z,0.00
2023-04-29T01:20:01.096Z,0.00
2023-04-29T01:40:01.258Z,0.00
2023-04-29T01:50:01.529Z,0.00
2023-04-29T02:00:01.888Z,0.00
2023-04-29T02:10:01.948Z,0.00
2023-04-29T02:20:01.164Z,0.00
2023-04-29T02:30:01.886Z,0.00
2023-04-29T02:40:01.274Z,0.00
2023-04-29T02:50:01.326Z,0.00
2023-04-29T03:00:02.206Z,0.00
2023-04-29T03:20:01.104Z,2.49
2023-04-29T03:30:00.969Z,11.43
2023-04-29T03:40:01.973Z,13.33
2023-04-29T04:00:01.005Z,48.33
2023-04-29T04:10:01.257Z,120.42
2023-04-29T04:20:03.324Z,320.00
2023-04-29T04:30:01.587Z,225.00
2023-04-29T04:40:00.991Z,219.58
2023-04-29T04:50:01.714Z,126.67
2023-04-29T05:00:01.420Z,340.00
2023-04-29T05:10:01.077Z,258.33
2023-04-29T05:20:01.025Z,480.00
2023-04-29T05:30:02.039Z,230.00
2023-04-29T05:40:02.007Z,474.17
2023-04-29T05:50:03.923Z,711.25
2023-04-29T06:00:02.453Z,827.50
2023-04-29T06:10:01.093Z,546.67
2023-04-29T06:20:01.318Z,1283.75
2023-04-29T06:30:01.548Z,1357.08
2023-04-29T06:40:01.050Z,1175.42
2023-04-29T06:50:00.998Z,555.00
2023-04-29T07:00:01.160Z,925.00
2023-04-29T07:10:01.022Z,1620.00
2023-04-29T07:20:01.938Z,1037.50
2023-04-29T07:30:01.330Z,1250.83
2023-04-29T07:40:01.003Z,1780.00
2023-04-29T07:50:01.287Z,1921.25
2023-04-29T08:00:01.168Z,1223.33
2023-04-29T08:10:01.308Z,1026.67
2023-04-29T08:20:01.635Z,1168.33
2023-04-29T08:40:01.074Z,2298.75
2023-04-29T08:50:01.322Z,820.00
2023-04-29T09:00:01.269Z,2081.67
2023-04-29T09:10:02.245Z,1470.42
2023-04-29T09:20:01.132Z,758.33
2023-04-29T09:30:02.480Z,796.67
2023-04-29T09:40:03.410Z,945.00
2023-04-29T09:50:01.298Z,946.67
2023-04-29T10:00:04.179Z,2474.17
2023-04-29T10:10:00.326Z,2613.33
2023-04-29T10:20:01.228Z,2670.42
2023-04-29T10:30:01.372Z,1246.67
2023-04-29T10:40:01.781Z,2955.00
2023-04-29T10:50:00.355Z,4808.75
2023-04-29T11:00:01.809Z,946.67
2023-04-29T11:10:02.155Z,1881.67
2023-04-29T11:20:01.075Z,4429.58
2023-04-29T11:30:03.749Z,5553.75
2023-04-29T11:40:00.243Z,5116.67
2023-04-29T11:50:01.631Z,9228.33
2023-04-29T12:00:01.056Z,3088.33
2023-04-29T12:10:01.097Z,6685.83
2023-04-29T12:20:01.261Z,2690.42
2023-04-29T12:30:00.983Z,1659.17
2023-04-29T12:40:04.676Z,3524.17
2023-04-29T12:50:01.071Z,5682.92
2023-04-29T13:00:01.092Z,10457.08
2023-04-29T13:10:02.233Z,10901.25
2023-04-29T13:20:01.379Z,8544.58
2023-04-29T13:30:01.490Z,9838.33
2023-04-29T13:40:01.846Z,7809.58
2023-04-29T14:00:10.454Z,11916.25
2023-04-29T14:10:02.895Z,3250.00
2023-04-29T14:20:03.739Z,4963.33
2023-04-29T14:30:03.272Z,3108.33
2023-04-29T14:40:01.253Z,12166.67
2023-04-29T14:50:01.321Z,36043.33
2023-04-29T15:00:01.042Z,32095.83
2023-04-29T15:10:00.309Z,8307.50
2023-04-29T15:20:01.959Z,5073.33
2023-04-29T15:30:01.316Z,2785.42
2023-04-29T15:40:01.044Z,1060.00
2023-04-29T15:50:01.237Z,3265.83
2023-04-29T16:00:01.579Z,4038.75
2023-04-29T16:10:01.095Z,1742.08
2023-04-29T16:20:01.253Z,1555.83
2023-04-29T16:30:03.131Z,1616.67
2023-04-29T16:40:01.026Z,3967.50
2023-04-29T16:50:01.539Z,6194.17
2023-04-29T17:00:01.513Z,12709.17
2023-04-29T17:10:01.940Z,10547.50
2023-04-29T17:20:01.057Z,7657.08
2023-04-29T17:30:02.579Z,1989.58
2023-04-29T17:40:01.450Z,2028.33
2023-04-29T17:50:02.689Z,1462.08
2023-04-29T18:00:01.480Z,880.00
2023-04-29T18:10:01.626Z,556.25
2023-04-29T18:20:02.502Z,346.25
2023-04-29T18:30:01.353Z,71.67
2023-04-29T18:40:02.292Z,58.33
2023-04-29T18:50:02.013Z,13.92
2023-04-29T19:00:01.399Z,2.49
2023-04-29T19:10:01.317Z,0.45
2023-04-29T19:20:01.317Z,0.11
2023-04-29T19:30:01.456Z,0.00
2023-04-29T19:40:01.259Z,0.00
2023-04-29T19:50:01.511Z,0.00
2023-04-29T20:00:01.972Z,0.00
2023-04-29T20:10:01.276Z,0.00
2023-04-29T20:20:00.828Z,0.00
2023-04-29T20:30:01.329Z,0.00
2023-04-29T20:40:02.017Z,0.00
2023-04-29T20:50:01.005Z,0.00
2023-04-29T21:00:01.070Z,0.00
2023-04-29T21:10:01.559Z,0.00
2023-04-29T21:20:01.254Z,0.00
2023-04-29T21:30:01.068Z,0.00
2023-04-29T21:40:01.416Z,0.00
2023-04-29T21:50:00.305Z,0.00
2023-04-29T22:00:01.035Z,0.00
2023-04-29T22:10:01.232Z,0.00
2023-04-29T22:20:00.262Z,0.00
2023-04-29T22:30:01.127Z,0.00
2023-04-29T22:40:02.224Z,0.00
2023-04-29T22:50:01.082Z,0.00
2023-04-29T23:00:01.596Z,0.00
2023-04-29T23:10:01.093Z,0.00
2023-04-29T23:20:01.002Z,0.00
2023-04-29T23:30:01.420Z,0.00
2023-04-29T23:40:01.862Z,0.00
2023-04-29T23:50:01.825Z,0.00
